sensor_id;sensor_type;location;lat;lon;timestamp;P1;durP1;ratioP1;P2;durP2;ratioP2
69185;SDS011;56298;49.246;9.410;2023-07-28T00:00:52;8.07;;;3.70;;
69185;SDS011;56298;49.246;9.410;2023-07-28T00:03:17;7.93;;;3.80;;
69185;SDS011;56298;49.246;9.410;2023-07-28T00:05:43;8.60;;;3.70;;
69185;SDS011;56298;49.246;9.410;2023-07-28T00:08:08;9.90;;;3.90;;
69185;SDS011;56298;49.246;9.410;2023-07-28T00:10:33;7.43;;;3.60;;
69185;SDS011;56298;49.246;9.410;2023-07-28T00:12:58;8.67;;;3.83;;
69185;SDS011;56298;49.246;9.410;2023-07-28T00:15:24;8.05;;;3.60;;
69185;SDS011;56298;49.246;9.410;2023-07-28T00:17:49;7.70;;;3.90;;
69185;SDS011;56298;49.246;9.410;2023-07-28T00:20:14;7.77;;;3.70;;
69185;SDS011;56298;49.246;9.410;2023-07-28T00:22:40;7.40;;;3.43;;
69185;SDS011;56298;49.246;9.410;2023-07-28T00:25:05;5.93;;;3.27;;
69185;SDS011;56298;49.246;9.410;2023-07-28T00:27:31;7.30;;;3.05;;
69185;SDS011;56298;49.246;9.410;2023-07-28T00:29:56;9.40;;;3.40;;
69185;SDS011;56298;49.246;9.410;2023-07-28T00:32:21;6.83;;;3.57;;
69185;SDS011;56298;49.246;9.410;2023-07-28T00:34:46;6.90;;;3.33;;
69185;SDS011;56298;49.246;9.410;2023-07-28T00:37:12;7.00;;;3.40;;
69185;SDS011;56298;49.246;9.410;2023-07-28T00:39:37;7.83;;;3.07;;
69185;SDS011;56298;49.246;9.410;2023-07-28T00:42:02;7.73;;;3.40;;
69185;SDS011;56298;49.246;9.410;2023-07-28T00:44:28;6.73;;;3.30;;
69185;SDS011;56298;49.246;9.410;2023-07-28T00:46:53;8.57;;;3.73;;
69185;SDS011;56298;49.246;9.410;2023-07-28T00:49:18;8.37;;;3.60;;
69185;SDS011;56298;49.246;9.410;2023-07-28T00:51:44;7.33;;;3.70;;
69185;SDS011;56298;49.246;9.410;2023-07-28T00:54:09;8.63;;;3.40;;
69185;SDS011;56298;49.246;9.410;2023-07-28T00:56:36;8.15;;;3.35;;
69185;SDS011;56298;49.246;9.410;2023-07-28T00:59:01;7.90;;;3.40;;
69185;SDS011;56298;49.246;9.410;2023-07-28T01:01:26;8.43;;;3.40;;
69185;SDS011;56298;49.246;9.410;2023-07-28T01:03:52;7.80;;;3.40;;
69185;SDS011;56298;49.246;9.410;2023-07-28T01:06:30;8.30;;;3.23;;
69185;SDS011;56298;49.246;9.410;2023-07-28T01:09:02;7.20;;;3.20;;
69185;SDS011;56298;49.246;9.410;2023-07-28T01:11:31;11.60;;;3.70;;
69185;SDS011;56298;49.246;9.410;2023-07-28T01:13:56;8.23;;;3.60;;
69185;SDS011;56298;49.246;9.410;2023-07-28T01:16:22;7.22;;;3.70;;
69185;SDS011;56298;49.246;9.410;2023-07-28T01:18:47;8.40;;;3.63;;
69185;SDS011;56298;49.246;9.410;2023-07-28T01:21:25;10.93;;;3.60;;
69185;SDS011;56298;49.246;9.410;2023-07-28T01:24:10;8.00;;;3.75;;
69185;SDS011;56298;49.246;9.410;2023-07-28T01:26:39;7.50;;;3.58;;
69185;SDS011;56298;49.246;9.410;2023-07-28T01:29:05;7.25;;;3.60;;
69185;SDS011;56298;49.246;9.410;2023-07-28T01:31:31;9.10;;;3.90;;
69185;SDS011;56298;49.246;9.410;2023-07-28T01:33:56;7.73;;;3.60;;
69185;SDS011;56298;49.246;9.410;2023-07-28T01:36:22;7.87;;;3.50;;
69185;SDS011;56298;49.246;9.410;2023-07-28T01:38:47;8.30;;;3.30;;
69185;SDS011;56298;49.246;9.410;2023-07-28T01:41:12;8.70;;;3.63;;
69185;SDS011;56298;49.246;9.410;2023-07-28T01:43:38;7.70;;;4.00;;
69185;SDS011;56298;49.246;9.410;2023-07-28T01:46:03;10.20;;;3.90;;
69185;SDS011;56298;49.246;9.410;2023-07-28T01:48:28;7.50;;;3.90;;
69185;SDS011;56298;49.246;9.410;2023-07-28T01:50:53;9.17;;;3.87;;
69185;SDS011;56298;49.246;9.410;2023-07-28T01:53:19;7.97;;;3.50;;
69185;SDS011;56298;49.246;9.410;2023-07-28T01:55:44;8.47;;;3.97;;
69185;SDS011;56298;49.246;9.410;2023-07-28T01:58:10;8.15;;;3.53;;
69185;SDS011;56298;49.246;9.410;2023-07-28T02:00:36;7.77;;;3.40;;
69185;SDS011;56298;49.246;9.410;2023-07-28T02:03:01;7.20;;;3.40;;
69185;SDS011;56298;49.246;9.410;2023-07-28T02:05:29;8.82;;;3.70;;
69185;SDS011;56298;49.246;9.410;2023-07-28T02:07:55;8.10;;;3.70;;
69185;SDS011;56298;49.246;9.410;2023-07-28T02:10:25;7.07;;;3.70;;
69185;SDS011;56298;49.246;9.410;2023-07-28T02:12:51;7.55;;;3.85;;
69185;SDS011;56298;49.246;9.410;2023-07-28T02:15:16;6.37;;;3.40;;
69185;SDS011;56298;49.246;9.410;2023-07-28T02:17:42;8.20;;;3.70;;
69185;SDS011;56298;49.246;9.410;2023-07-28T02:20:07;9.30;;;3.70;;
69185;SDS011;56298;49.246;9.410;2023-07-28T02:22:35;9.45;;;3.72;;
69185;SDS011;56298;49.246;9.410;2023-07-28T02:25:01;7.67;;;3.43;;
69185;SDS011;56298;49.246;9.410;2023-07-28T02:27:27;7.65;;;3.50;;
69185;SDS011;56298;49.246;9.410;2023-07-28T02:29:52;8.67;;;3.67;;
69185;SDS011;56298;49.246;9.410;2023-07-28T02:32:17;8.70;;;3.57;;
69185;SDS011;56298;49.246;9.410;2023-07-28T02:34:43;7.47;;;3.53;;
69185;SDS011;56298;49.246;9.410;2023-07-28T02:37:08;9.57;;;3.87;;
69185;SDS011;56298;49.246;9.410;2023-07-28T02:39:33;8.03;;;3.40;;
69185;SDS011;56298;49.246;9.410;2023-07-28T02:41:58;10.50;;;3.70;;
69185;SDS011;56298;49.246;9.410;2023-07-28T02:44:24;9.07;;;3.80;;
69185;SDS011;56298;49.246;9.410;2023-07-28T02:46:49;8.23;;;3.63;;
69185;SDS011;56298;49.246;9.410;2023-07-28T02:49:14;8.17;;;3.63;;
69185;SDS011;56298;49.246;9.410;2023-07-28T02:51:40;7.23;;;3.90;;
69185;SDS011;56298;49.246;9.410;2023-07-28T02:54:05;9.18;;;3.50;;
69185;SDS011;56298;49.246;9.410;2023-07-28T02:56:31;9.93;;;3.90;;
69185;SDS011;56298;49.246;9.410;2023-07-28T02:58:59;9.55;;;3.85;;
69185;SDS011;56298;49.246;9.410;2023-07-28T03:01:24;6.77;;;3.60;;
69185;SDS011;56298;49.246;9.410;2023-07-28T03:03:50;6.93;;;3.67;;
69185;SDS011;56298;49.246;9.410;2023-07-28T03:06:15;7.40;;;3.60;;
69185;SDS011;56298;49.246;9.410;2023-07-28T03:08:40;10.10;;;3.97;;
69185;SDS011;56298;49.246;9.410;2023-07-28T03:11:06;8.00;;;3.40;;
69185;SDS011;56298;49.246;9.410;2023-07-28T03:13:31;9.57;;;3.67;;
69185;SDS011;56298;49.246;9.410;2023-07-28T03:15:56;8.13;;;3.50;;
69185;SDS011;56298;49.246;9.410;2023-07-28T03:18:22;13.47;;;4.33;;
69185;SDS011;56298;49.246;9.410;2023-07-28T03:20:47;8.73;;;4.27;;
69185;SDS011;56298;49.246;9.410;2023-07-28T03:23:12;9.93;;;4.03;;
69185;SDS011;56298;49.246;9.410;2023-07-28T03:25:38;9.43;;;3.83;;
69185;SDS011;56298;49.246;9.410;2023-07-28T03:28:03;10.67;;;4.20;;
69185;SDS011;56298;49.246;9.410;2023-07-28T03:30:29;10.00;;;3.87;;
69185;SDS011;56298;49.246;9.410;2023-07-28T03:32:54;9.57;;;4.43;;
69185;SDS011;56298;49.246;9.410;2023-07-28T03:35:20;10.07;;;4.13;;
69185;SDS011;56298;49.246;9.410;2023-07-28T03:37:45;10.33;;;4.10;;
69185;SDS011;56298;49.246;9.410;2023-07-28T03:40:10;9.33;;;4.03;;
69185;SDS011;56298;49.246;9.410;2023-07-28T03:42:37;9.47;;;4.40;;
69185;SDS011;56298;49.246;9.410;2023-07-28T03:45:03;9.10;;;3.92;;
69185;SDS011;56298;49.246;9.410;2023-07-28T03:47:29;8.80;;;4.30;;
69185;SDS011;56298;49.246;9.410;2023-07-28T03:49:54;8.10;;;3.80;;
69185;SDS011;56298;49.246;9.410;2023-07-28T03:52:19;11.13;;;4.40;;
69185;SDS011;56298;49.246;9.410;2023-07-28T03:54:45;9.63;;;4.23;;
69185;SDS011;56298;49.246;9.410;2023-07-28T03:57:11;8.60;;;4.57;;
69185;SDS011;56298;49.246;9.410;2023-07-28T03:59:37;8.93;;;4.27;;
69185;SDS011;56298;49.246;9.410;2023-07-28T04:02:02;12.07;;;4.40;;
69185;SDS011;56298;49.246;9.410;2023-07-28T04:04:28;8.10;;;4.22;;
69185;SDS011;56298;49.246;9.410;2023-07-28T04:06:53;10.63;;;4.67;;
69185;SDS011;56298;49.246;9.410;2023-07-28T04:09:18;8.27;;;4.67;;
69185;SDS011;56298;49.246;9.410;2023-07-28T04:11:44;8.27;;;4.77;;
69185;SDS011;56298;49.246;9.410;2023-07-28T04:14:09;8.90;;;4.50;;
69185;SDS011;56298;49.246;9.410;2023-07-28T04:16:35;9.30;;;4.40;;
69185;SDS011;56298;49.246;9.410;2023-07-28T04:19:00;9.45;;;4.80;;
69185;SDS011;56298;49.246;9.410;2023-07-28T04:21:25;8.23;;;4.40;;
69185;SDS011;56298;49.246;9.410;2023-07-28T04:23:51;8.43;;;4.40;;
69185;SDS011;56298;49.246;9.410;2023-07-28T04:26:16;9.67;;;4.30;;
69185;SDS011;56298;49.246;9.410;2023-07-28T04:28:42;10.00;;;4.67;;
69185;SDS011;56298;49.246;9.410;2023-07-28T04:31:08;8.98;;;4.25;;
69185;SDS011;56298;49.246;9.410;2023-07-28T04:33:33;8.65;;;3.95;;
69185;SDS011;56298;49.246;9.410;2023-07-28T04:36:03;8.67;;;4.10;;
69185;SDS011;56298;49.246;9.410;2023-07-28T04:38:29;8.13;;;4.07;;
69185;SDS011;56298;49.246;9.410;2023-07-28T04:40:54;8.33;;;3.90;;
69185;SDS011;56298;49.246;9.410;2023-07-28T04:43:20;8.67;;;3.77;;
69185;SDS011;56298;49.246;9.410;2023-07-28T04:45:46;7.60;;;3.67;;
69185;SDS011;56298;49.246;9.410;2023-07-28T04:48:13;7.43;;;3.70;;
69185;SDS011;56298;49.246;9.410;2023-07-28T05:03:42;7.95;;;3.50;;
69185;SDS011;56298;49.246;9.410;2023-07-28T05:06:08;8.55;;;3.55;;
69185;SDS011;56298;49.246;9.410;2023-07-28T05:08:36;8.87;;;3.53;;
69185;SDS011;56298;49.246;9.410;2023-07-28T05:11:30;6.82;;;3.80;;
69185;SDS011;56298;49.246;9.410;2023-07-28T05:20:50;9.80;;;3.57;;
69185;SDS011;56298;49.246;9.410;2023-07-28T05:32:00;6.38;;;3.40;;
69185;SDS011;56298;49.246;9.410;2023-07-28T05:34:26;6.80;;;3.33;;
69185;SDS011;56298;49.246;9.410;2023-07-28T05:36:51;6.27;;;3.27;;
69185;SDS011;56298;49.246;9.410;2023-07-28T05:39:17;7.33;;;3.17;;
69185;SDS011;56298;49.246;9.410;2023-07-28T05:41:42;7.13;;;3.40;;
69185;SDS011;56298;49.246;9.410;2023-07-28T05:44:07;6.43;;;3.23;;
69185;SDS011;56298;49.246;9.410;2023-07-28T05:46:32;6.20;;;3.40;;
69185;SDS011;56298;49.246;9.410;2023-07-28T05:48:58;7.32;;;3.47;;
69185;SDS011;56298;49.246;9.410;2023-07-28T05:51:24;6.30;;;3.30;;
69185;SDS011;56298;49.246;9.410;2023-07-28T05:53:49;7.50;;;3.40;;
69185;SDS011;56298;49.246;9.410;2023-07-28T05:56:15;9.73;;;3.42;;
69185;SDS011;56298;49.246;9.410;2023-07-28T05:58:41;8.27;;;3.33;;
69185;SDS011;56298;49.246;9.410;2023-07-28T06:01:06;9.87;;;4.33;;
69185;SDS011;56298;49.246;9.410;2023-07-28T06:03:31;9.57;;;5.37;;
69185;SDS011;56298;49.246;9.410;2023-07-28T06:05:57;8.90;;;4.30;;
69185;SDS011;56298;49.246;9.410;2023-07-28T06:08:22;8.73;;;4.40;;
69185;SDS011;56298;49.246;9.410;2023-07-28T06:10:47;7.40;;;3.47;;
69185;SDS011;56298;49.246;9.410;2023-07-28T06:13:12;8.30;;;3.43;;
69185;SDS011;56298;49.246;9.410;2023-07-28T06:15:38;6.90;;;3.30;;
69185;SDS011;56298;49.246;9.410;2023-07-28T06:18:04;6.97;;;3.33;;
69185;SDS011;56298;49.246;9.410;2023-07-28T06:20:29;6.40;;;3.60;;
69185;SDS011;56298;49.246;9.410;2023-07-28T06:22:55;9.13;;;3.63;;
69185;SDS011;56298;49.246;9.410;2023-07-28T06:25:20;7.37;;;3.70;;
69185;SDS011;56298;49.246;9.410;2023-07-28T06:27:46;6.53;;;3.80;;
69185;SDS011;56298;49.246;9.410;2023-07-28T06:30:11;6.80;;;3.65;;
69185;SDS011;56298;49.246;9.410;2023-07-28T06:32:37;8.00;;;3.90;;
69185;SDS011;56298;49.246;9.410;2023-07-28T06:35:02;6.93;;;3.60;;
69185;SDS011;56298;49.246;9.410;2023-07-28T06:37:28;7.20;;;3.47;;
69185;SDS011;56298;49.246;9.410;2023-07-28T06:39:53;6.50;;;3.60;;
69185;SDS011;56298;49.246;9.410;2023-07-28T06:42:20;6.22;;;3.20;;
69185;SDS011;56298;49.246;9.410;2023-07-28T06:44:48;6.85;;;3.30;;
69185;SDS011;56298;49.246;9.410;2023-07-28T06:47:15;6.20;;;3.35;;
69185;SDS011;56298;49.246;9.410;2023-07-28T06:49:40;5.77;;;3.27;;
69185;SDS011;56298;49.246;9.410;2023-07-28T06:52:05;7.17;;;3.27;;
69185;SDS011;56298;49.246;9.410;2023-07-28T06:54:31;5.83;;;3.03;;
69185;SDS011;56298;49.246;9.410;2023-07-28T06:56:56;7.13;;;3.20;;
69185;SDS011;56298;49.246;9.410;2023-07-28T06:59:25;6.22;;;3.08;;
69185;SDS011;56298;49.246;9.410;2023-07-28T07:01:56;6.55;;;3.20;;
69185;SDS011;56298;49.246;9.410;2023-07-28T07:04:24;7.00;;;2.90;;
69185;SDS011;56298;49.246;9.410;2023-07-28T07:06:50;6.20;;;2.70;;
69185;SDS011;56298;49.246;9.410;2023-07-28T07:09:18;5.43;;;2.47;;
69185;SDS011;56298;49.246;9.410;2023-07-28T07:42:51;5.13;;;2.30;;
69185;SDS011;56298;49.246;9.410;2023-07-28T07:45:17;5.20;;;2.23;;
69185;SDS011;56298;49.246;9.410;2023-07-28T07:47:42;5.20;;;2.30;;
69185;SDS011;56298;49.246;9.410;2023-07-28T07:50:10;3.90;;;1.63;;
69185;SDS011;56298;49.246;9.410;2023-07-28T07:57:41;3.75;;;1.55;;
69185;SDS011;56298;49.246;9.410;2023-07-28T08:00:07;4.07;;;1.60;;
69185;SDS011;56298;49.246;9.410;2023-07-28T08:02:41;5.27;;;1.30;;
69185;SDS011;56298;49.246;9.410;2023-07-28T08:05:09;4.28;;;1.60;;
69185;SDS011;56298;49.246;9.410;2023-07-28T08:07:35;4.13;;;1.53;;
69185;SDS011;56298;49.246;9.410;2023-07-28T08:10:00;4.60;;;1.50;;
69185;SDS011;56298;49.246;9.410;2023-07-28T08:12:26;4.40;;;1.70;;
69185;SDS011;56298;49.246;9.410;2023-07-28T08:14:52;4.65;;;1.85;;
69185;SDS011;56298;49.246;9.410;2023-07-28T08:17:33;6.30;;;2.00;;
69185;SDS011;56298;49.246;9.410;2023-07-28T08:25:33;4.53;;;2.17;;
69185;SDS011;56298;49.246;9.410;2023-07-28T08:28:35;5.22;;;2.10;;
69185;SDS011;56298;49.246;9.410;2023-07-28T08:31:01;4.80;;;2.40;;
69185;SDS011;56298;49.246;9.410;2023-07-28T08:33:26;4.30;;;2.00;;
69185;SDS011;56298;49.246;9.410;2023-07-28T08:35:52;4.17;;;1.90;;
69185;SDS011;56298;49.246;9.410;2023-07-28T08:38:18;4.70;;;2.13;;
69185;SDS011;56298;49.246;9.410;2023-07-28T08:40:44;5.50;;;2.20;;
69185;SDS011;56298;49.246;9.410;2023-07-28T08:43:10;6.10;;;2.10;;
69185;SDS011;56298;49.246;9.410;2023-07-28T08:45:35;4.28;;;2.00;;
69185;SDS011;56298;49.246;9.410;2023-07-28T08:48:01;4.30;;;2.13;;
69185;SDS011;56298;49.246;9.410;2023-07-28T08:50:26;4.30;;;1.90;;
69185;SDS011;56298;49.246;9.410;2023-07-28T08:52:51;4.33;;;1.80;;
69185;SDS011;56298;49.246;9.410;2023-07-28T08:55:17;3.87;;;1.67;;
69185;SDS011;56298;49.246;9.410;2023-07-28T08:57:42;4.63;;;1.70;;
69185;SDS011;56298;49.246;9.410;2023-07-28T09:00:10;4.57;;;2.00;;
69185;SDS011;56298;49.246;9.410;2023-07-28T09:02:38;4.25;;;1.88;;
69185;SDS011;56298;49.246;9.410;2023-07-28T09:05:05;4.68;;;1.83;;
69185;SDS011;56298;49.246;9.410;2023-07-28T09:07:34;5.13;;;1.77;;
69185;SDS011;56298;49.246;9.410;2023-07-28T09:10:00;5.65;;;2.00;;
69185;SDS011;56298;49.246;9.410;2023-07-28T09:12:26;4.93;;;1.80;;
69185;SDS011;56298;49.246;9.410;2023-07-28T09:14:55;6.47;;;1.90;;
69185;SDS011;56298;49.246;9.410;2023-07-28T09:17:21;4.00;;;1.48;;
69185;SDS011;56298;49.246;9.410;2023-07-28T09:19:50;4.47;;;1.43;;
69185;SDS011;56298;49.246;9.410;2023-07-28T09:22:17;3.70;;;1.45;;
69185;SDS011;56298;49.246;9.410;2023-07-28T09:24:43;3.67;;;1.65;;
69185;SDS011;56298;49.246;9.410;2023-07-28T09:27:12;3.80;;;1.60;;
69185;SDS011;56298;49.246;9.410;2023-07-28T09:29:49;4.63;;;1.50;;
69185;SDS011;56298;49.246;9.410;2023-07-28T09:32:15;5.07;;;1.73;;
69185;SDS011;56298;49.246;9.410;2023-07-28T09:34:50;4.13;;;1.60;;
69185;SDS011;56298;49.246;9.410;2023-07-28T09:37:30;4.20;;;1.60;;
69185;SDS011;56298;49.246;9.410;2023-07-28T09:39:56;4.03;;;1.73;;
69185;SDS011;56298;49.246;9.410;2023-07-28T09:42:22;4.05;;;1.73;;
69185;SDS011;56298;49.246;9.410;2023-07-28T09:44:47;4.20;;;1.70;;
69185;SDS011;56298;49.246;9.410;2023-07-28T09:47:13;4.30;;;1.70;;
69185;SDS011;56298;49.246;9.410;2023-07-28T09:49:39;4.93;;;1.87;;
69185;SDS011;56298;49.246;9.410;2023-07-28T09:52:10;4.10;;;1.73;;
69185;SDS011;56298;49.246;9.410;2023-07-28T09:54:39;4.65;;;1.80;;
69185;SDS011;56298;49.246;9.410;2023-07-28T09:57:08;4.75;;;1.70;;
69185;SDS011;56298;49.246;9.410;2023-07-28T09:59:40;4.28;;;1.80;;
69185;SDS011;56298;49.246;9.410;2023-07-28T10:02:07;4.00;;;1.80;;
69185;SDS011;56298;49.246;9.410;2023-07-28T10:04:33;4.50;;;2.20;;
69185;SDS011;56298;49.246;9.410;2023-07-28T10:06:59;5.15;;;2.05;;
69185;SDS011;56298;49.246;9.410;2023-07-28T10:09:25;4.27;;;2.00;;
69185;SDS011;56298;49.246;9.410;2023-07-28T10:11:51;4.80;;;1.75;;
69185;SDS011;56298;49.246;9.410;2023-07-28T10:14:27;4.50;;;1.88;;
69185;SDS011;56298;49.246;9.410;2023-07-28T10:16:58;5.57;;;1.90;;
69185;SDS011;56298;49.246;9.410;2023-07-28T10:19:24;4.28;;;1.80;;
69185;SDS011;56298;49.246;9.410;2023-07-28T10:22:00;4.45;;;1.67;;
69185;SDS011;56298;49.246;9.410;2023-07-28T10:30:12;4.00;;;1.77;;
69185;SDS011;56298;49.246;9.410;2023-07-28T10:35:07;4.20;;;1.70;;
69185;SDS011;56298;49.246;9.410;2023-07-28T10:37:33;4.10;;;1.67;;
69185;SDS011;56298;49.246;9.410;2023-07-28T10:43:00;4.83;;;1.50;;
69185;SDS011;56298;49.246;9.410;2023-07-28T10:45:27;3.30;;;1.30;;
69185;SDS011;56298;49.246;9.410;2023-07-28T10:47:53;4.50;;;1.38;;
69185;SDS011;56298;49.246;9.410;2023-07-28T10:50:21;3.75;;;1.38;;
69185;SDS011;56298;49.246;9.410;2023-07-28T10:52:46;3.70;;;1.30;;
69185;SDS011;56298;49.246;9.410;2023-07-28T10:55:13;3.63;;;1.13;;
69185;SDS011;56298;49.246;9.410;2023-07-28T10:57:42;3.45;;;1.10;;
69185;SDS011;56298;49.246;9.410;2023-07-28T11:00:09;4.07;;;1.20;;
69185;SDS011;56298;49.246;9.410;2023-07-28T11:02:37;4.20;;;1.00;;
69185;SDS011;56298;49.246;9.410;2023-07-28T11:05:24;3.50;;;1.20;;
69185;SDS011;56298;49.246;9.410;2023-07-28T11:07:52;3.20;;;1.15;;
69185;SDS011;56298;49.246;9.410;2023-07-28T11:10:19;3.97;;;1.30;;
69185;SDS011;56298;49.246;9.410;2023-07-28T11:12:47;3.73;;;1.20;;
69185;SDS011;56298;49.246;9.410;2023-07-28T11:15:14;3.35;;;1.10;;
69185;SDS011;56298;49.246;9.410;2023-07-28T11:17:41;3.80;;;1.20;;
69185;SDS011;56298;49.246;9.410;2023-07-28T11:20:17;3.72;;;1.30;;
69185;SDS011;56298;49.246;9.410;2023-07-28T11:22:54;4.70;;;1.40;;
69185;SDS011;56298;49.246;9.410;2023-07-28T11:25:29;3.53;;;1.30;;
69185;SDS011;56298;49.246;9.410;2023-07-28T11:27:56;3.53;;;1.30;;
69185;SDS011;56298;49.246;9.410;2023-07-28T11:30:22;3.95;;;1.40;;
69185;SDS011;56298;49.246;9.410;2023-07-28T11:32:51;3.40;;;1.42;;
69185;SDS011;56298;49.246;9.410;2023-07-28T11:35:18;3.97;;;1.38;;
69185;SDS011;56298;49.246;9.410;2023-07-28T11:37:46;4.53;;;1.00;;
69185;SDS011;56298;49.246;9.410;2023-07-28T11:40:14;3.70;;;1.10;;
69185;SDS011;56298;49.246;9.410;2023-07-28T11:42:43;3.38;;;1.30;;
69185;SDS011;56298;49.246;9.410;2023-07-28T11:45:10;3.20;;;1.20;;
69185;SDS011;56298;49.246;9.410;2023-07-28T11:47:36;4.60;;;1.25;;
69185;SDS011;56298;49.246;9.410;2023-07-28T11:50:02;3.50;;;1.10;;
69185;SDS011;56298;49.246;9.410;2023-07-28T11:52:35;4.15;;;1.17;;
69185;SDS011;56298;49.246;9.410;2023-07-28T11:55:01;5.07;;;1.20;;
69185;SDS011;56298;49.246;9.410;2023-07-28T11:57:29;3.60;;;1.30;;
69185;SDS011;56298;49.246;9.410;2023-07-28T11:59:58;3.58;;;1.02;;
69185;SDS011;56298;49.246;9.410;2023-07-28T12:02:29;3.60;;;0.90;;
69185;SDS011;56298;49.246;9.410;2023-07-28T12:04:56;3.28;;;0.82;;
69185;SDS011;56298;49.246;9.410;2023-07-28T12:07:30;5.20;;;1.00;;
69185;SDS011;56298;49.246;9.410;2023-07-28T12:09:57;3.20;;;0.80;;
69185;SDS011;56298;49.246;9.410;2023-07-28T12:12:25;3.97;;;0.80;;
69185;SDS011;56298;49.246;9.410;2023-07-28T12:14:51;4.82;;;0.90;;
69185;SDS011;56298;49.246;9.410;2023-07-28T12:17:17;4.37;;;0.93;;
69185;SDS011;56298;49.246;9.410;2023-07-28T12:20:03;3.17;;;0.90;;
69185;SDS011;56298;49.246;9.410;2023-07-28T12:22:42;3.53;;;0.80;;
69185;SDS011;56298;49.246;9.410;2023-07-28T12:25:09;3.25;;;0.70;;
69185;SDS011;56298;49.246;9.410;2023-07-28T12:27:35;3.60;;;0.80;;
69185;SDS011;56298;49.246;9.410;2023-07-28T12:30:01;3.05;;;0.85;;
69185;SDS011;56298;49.246;9.410;2023-07-28T12:32:27;3.85;;;1.00;;
69185;SDS011;56298;49.246;9.410;2023-07-28T12:34:52;3.73;;;1.00;;
69185;SDS011;56298;49.246;9.410;2023-07-28T12:37:18;3.97;;;0.90;;
69185;SDS011;56298;49.246;9.410;2023-07-28T12:39:44;3.15;;;0.80;;
69185;SDS011;56298;49.246;9.410;2023-07-28T12:42:09;3.60;;;1.00;;
69185;SDS011;56298;49.246;9.410;2023-07-28T12:44:36;3.03;;;0.80;;
69185;SDS011;56298;49.246;9.410;2023-07-28T12:47:02;3.10;;;0.70;;
69185;SDS011;56298;49.246;9.410;2023-07-28T12:49:28;2.90;;;0.75;;
69185;SDS011;56298;49.246;9.410;2023-07-28T12:51:54;3.27;;;0.80;;
69185;SDS011;56298;49.246;9.410;2023-07-28T12:54:21;3.15;;;0.75;;
69185;SDS011;56298;49.246;9.410;2023-07-28T12:56:47;2.85;;;0.70;;
69185;SDS011;56298;49.246;9.410;2023-07-28T12:59:13;3.30;;;1.00;;
69185;SDS011;56298;49.246;9.410;2023-07-28T13:01:38;3.43;;;0.80;;
69185;SDS011;56298;49.246;9.410;2023-07-28T13:04:04;3.13;;;0.80;;
69185;SDS011;56298;49.246;9.410;2023-07-28T13:06:29;3.47;;;0.83;;
69185;SDS011;56298;49.246;9.410;2023-07-28T13:08:54;3.40;;;0.90;;
69185;SDS011;56298;49.246;9.410;2023-07-28T13:11:19;3.60;;;1.10;;
69185;SDS011;56298;49.246;9.410;2023-07-28T13:13:45;3.90;;;1.17;;
69185;SDS011;56298;49.246;9.410;2023-07-28T13:16:10;3.10;;;1.00;;
69185;SDS011;56298;49.246;9.410;2023-07-28T13:18:35;3.53;;;1.20;;
69185;SDS011;56298;49.246;9.410;2023-07-28T13:21:01;3.70;;;1.27;;
69185;SDS011;56298;49.246;9.410;2023-07-28T13:23:26;3.97;;;1.40;;
69185;SDS011;56298;49.246;9.410;2023-07-28T13:25:51;4.53;;;1.38;;
69185;SDS011;56298;49.246;9.410;2023-07-28T13:28:17;4.50;;;1.67;;
69185;SDS011;56298;49.246;9.410;2023-07-28T13:30:43;3.93;;;1.50;;
69185;SDS011;56298;49.246;9.410;2023-07-28T13:33:08;4.60;;;1.70;;
69185;SDS011;56298;49.246;9.410;2023-07-28T13:35:33;4.83;;;1.60;;
69185;SDS011;56298;49.246;9.410;2023-07-28T13:37:58;5.13;;;1.70;;
69185;SDS011;56298;49.246;9.410;2023-07-28T13:40:24;5.40;;;1.73;;
69185;SDS011;56298;49.246;9.410;2023-07-28T13:42:49;4.30;;;1.73;;
69185;SDS011;56298;49.246;9.410;2023-07-28T13:45:14;5.00;;;1.73;;
69185;SDS011;56298;49.246;9.410;2023-07-28T13:47:40;5.28;;;1.80;;
69185;SDS011;56298;49.246;9.410;2023-07-28T13:50:05;5.27;;;1.90;;
69185;SDS011;56298;49.246;9.410;2023-07-28T13:52:32;6.20;;;2.10;;
69185;SDS011;56298;49.246;9.410;2023-07-28T13:54:57;4.90;;;2.20;;
69185;SDS011;56298;49.246;9.410;2023-07-28T13:57:22;6.73;;;2.53;;
69185;SDS011;56298;49.246;9.410;2023-07-28T13:59:47;5.10;;;2.00;;
69185;SDS011;56298;49.246;9.410;2023-07-28T14:02:16;6.25;;;2.20;;
69185;SDS011;56298;49.246;9.410;2023-07-28T14:04:43;6.53;;;2.50;;
69185;SDS011;56298;49.246;9.410;2023-07-28T14:07:08;7.32;;;2.85;;
69185;SDS011;56298;49.246;9.410;2023-07-28T14:09:33;6.20;;;2.60;;
69185;SDS011;56298;49.246;9.410;2023-07-28T14:11:59;5.23;;;2.47;;
69185;SDS011;56298;49.246;9.410;2023-07-28T14:14:24;5.37;;;2.50;;
69185;SDS011;56298;49.246;9.410;2023-07-28T14:16:50;6.23;;;2.30;;
69185;SDS011;56298;49.246;9.410;2023-07-28T14:19:15;7.30;;;2.40;;
69185;SDS011;56298;49.246;9.410;2023-07-28T14:21:40;5.77;;;2.33;;
69185;SDS011;56298;49.246;9.410;2023-07-28T14:24:05;7.10;;;2.27;;
69185;SDS011;56298;49.246;9.410;2023-07-28T14:26:31;5.40;;;2.17;;
69185;SDS011;56298;49.246;9.410;2023-07-28T14:29:02;5.88;;;2.20;;
69185;SDS011;56298;49.246;9.410;2023-07-28T14:31:27;7.03;;;2.40;;
69185;SDS011;56298;49.246;9.410;2023-07-28T14:33:54;5.70;;;2.40;;
69185;SDS011;56298;49.246;9.410;2023-07-28T14:36:24;5.65;;;2.53;;
69185;SDS011;56298;49.246;9.410;2023-07-28T14:38:52;6.05;;;2.58;;
69185;SDS011;56298;49.246;9.410;2023-07-28T14:41:17;7.07;;;3.13;;
69185;SDS011;56298;49.246;9.410;2023-07-28T14:43:43;5.57;;;2.50;;
69185;SDS011;56298;49.246;9.410;2023-07-28T14:46:12;5.30;;;2.60;;
69185;SDS011;56298;49.246;9.410;2023-07-28T14:48:37;6.18;;;2.88;;
69185;SDS011;56298;49.246;9.410;2023-07-28T14:51:08;7.35;;;2.80;;
69185;SDS011;56298;49.246;9.410;2023-07-28T15:20:49;5.73;;;3.13;;
69185;SDS011;56298;49.246;9.410;2023-07-28T15:23:20;7.57;;;3.45;;
69185;SDS011;56298;49.246;9.410;2023-07-28T15:26:06;6.57;;;3.33;;
69185;SDS011;56298;49.246;9.410;2023-07-28T15:38:58;8.13;;;3.00;;
69185;SDS011;56298;49.246;9.410;2023-07-28T15:41:26;5.90;;;2.47;;
69185;SDS011;56298;49.246;9.410;2023-07-28T15:51:35;4.97;;;1.90;;
69185;SDS011;56298;49.246;9.410;2023-07-28T15:54:00;4.63;;;1.70;;
69185;SDS011;56298;49.246;9.410;2023-07-28T15:56:27;5.67;;;2.00;;
69185;SDS011;56298;49.246;9.410;2023-07-28T15:58:52;6.70;;;2.00;;
69185;SDS011;56298;49.246;9.410;2023-07-28T16:01:17;5.00;;;1.97;;
69185;SDS011;56298;49.246;9.410;2023-07-28T16:03:43;5.53;;;2.20;;
69185;SDS011;56298;49.246;9.410;2023-07-28T16:06:08;5.17;;;1.80;;
69185;SDS011;56298;49.246;9.410;2023-07-28T16:08:33;5.80;;;2.00;;
69185;SDS011;56298;49.246;9.410;2023-07-28T16:10:58;5.23;;;2.07;;
69185;SDS011;56298;49.246;9.410;2023-07-28T16:13:24;6.10;;;2.10;;
69185;SDS011;56298;49.246;9.410;2023-07-28T16:15:50;6.35;;;2.00;;
69185;SDS011;56298;49.246;9.410;2023-07-28T16:18:15;6.10;;;2.20;;
69185;SDS011;56298;49.246;9.410;2023-07-28T16:20:41;5.37;;;2.30;;
69185;SDS011;56298;49.246;9.410;2023-07-28T16:23:06;6.03;;;1.98;;
69185;SDS011;56298;49.246;9.410;2023-07-28T16:25:31;5.63;;;2.10;;
69185;SDS011;56298;49.246;9.410;2023-07-28T16:27:57;5.53;;;2.30;;
69185;SDS011;56298;49.246;9.410;2023-07-28T16:30:23;4.70;;;2.13;;
69185;SDS011;56298;49.246;9.410;2023-07-28T16:32:48;5.47;;;2.07;;
69185;SDS011;56298;49.246;9.410;2023-07-28T16:35:13;5.03;;;2.00;;
69185;SDS011;56298;49.246;9.410;2023-07-28T16:37:39;5.93;;;2.20;;
69185;SDS011;56298;49.246;9.410;2023-07-28T16:40:04;5.30;;;2.17;;
69185;SDS011;56298;49.246;9.410;2023-07-28T16:42:30;4.88;;;1.92;;
69185;SDS011;56298;49.246;9.410;2023-07-28T16:44:56;5.20;;;2.00;;
69185;SDS011;56298;49.246;9.410;2023-07-28T16:47:21;5.20;;;1.90;;
69185;SDS011;56298;49.246;9.410;2023-07-28T16:49:47;5.07;;;2.30;;
69185;SDS011;56298;49.246;9.410;2023-07-28T16:52:12;4.63;;;2.10;;